createdAt,value
2022-08-16T00:00:38.751Z,2.00
2022-08-16T00:05:48.322Z,2.30
2022-08-16T00:10:50.373Z,2.33
2022-08-16T00:15:54.315Z,3.00
2022-08-16T00:20:55.927Z,2.63
2022-08-16T00:26:36.686Z,2.40
2022-08-16T00:31:19.788Z,2.88
2022-08-16T00:36:25.790Z,2.58
2022-08-16T00:41:30.311Z,2.80
2022-08-16T00:47:08.559Z,2.88
2022-08-16T00:52:29.700Z,2.50
2022-08-16T00:57:55.522Z,2.67
2022-08-16T01:02:52.664Z,2.88
2022-08-16T01:07:55.328Z,3.05
2022-08-16T01:12:57.003Z,3.00
2022-08-16T01:18:05.954Z,2.53
2022-08-16T01:23:21.532Z,2.85
2022-08-16T01:28:23.375Z,3.35
2022-08-16T01:33:33.286Z,3.00
2022-08-16T01:38:48.859Z,3.65
2022-08-16T01:43:54.798Z,2.95
2022-08-16T01:49:01.285Z,3.10
2022-08-16T01:54:03.229Z,3.00
2022-08-16T01:59:08.066Z,3.33
2022-08-16T02:04:48.032Z,3.67
2022-08-16T02:09:41.140Z,3.58
2022-08-16T02:14:43.578Z,4.20
2022-08-16T02:19:58.816Z,4.18
2022-08-16T02:25:10.683Z,3.45
2022-08-16T02:30:37.628Z,4.00
2022-08-16T02:35:53.724Z,4.13
2022-08-16T02:40:57.719Z,4.15
2022-08-16T02:51:10.240Z,4.20
2022-08-16T02:56:15.574Z,3.63
2022-08-16T03:01:25.103Z,3.70
2022-08-16T03:06:42.768Z,4.00
2022-08-16T03:11:44.772Z,3.90
2022-08-16T03:16:58.753Z,3.85
2022-08-16T03:22:01.319Z,4.20
2022-08-16T03:27:03.698Z,3.88
2022-08-16T03:32:07.892Z,4.15
2022-08-16T03:37:09.281Z,4.10
2022-08-16T03:42:10.647Z,3.95
2022-08-16T03:47:12.047Z,4.43
2022-08-16T03:52:13.697Z,3.97
2022-08-16T03:57:17.853Z,4.43
2022-08-16T04:02:22.299Z,4.32
2022-08-16T04:07:24.638Z,5.43
2022-08-16T04:12:53.200Z,4.85
2022-08-16T04:17:47.719Z,5.00
2022-08-16T04:22:49.980Z,4.55
2022-08-16T04:27:54.145Z,5.22
2022-08-16T04:32:57.332Z,5.60
2022-08-16T04:43:22.192Z,5.82
2022-08-16T04:48:28.392Z,5.30
2022-08-16T04:53:34.201Z,5.35
2022-08-16T04:58:46.089Z,5.50
2022-08-16T05:03:59.950Z,5.13
2022-08-16T05:09:03.239Z,5.82
2022-08-16T05:14:06.770Z,5.80
2022-08-16T05:19:11.501Z,5.80
2022-08-16T05:24:13.389Z,6.85
2022-08-16T05:29:15.335Z,5.95
2022-08-16T05:34:21.200Z,7.75
2022-08-16T05:39:25.313Z,7.80
2022-08-16T05:44:27.183Z,7.13
2022-08-16T05:49:38.657Z,6.75
2022-08-16T05:54:47.292Z,7.00
2022-08-16T05:59:50.559Z,7.00
2022-08-16T06:05:02.197Z,7.50
2022-08-16T06:10:04.995Z,8.30
2022-08-16T06:15:14.904Z,7.63
2022-08-16T06:20:24.179Z,6.88
2022-08-16T06:25:36.353Z,6.90
2022-08-16T06:30:43.320Z,6.90
2022-08-16T06:35:46.990Z,7.55
2022-08-16T06:40:50.933Z,7.07
2022-08-16T06:45:52.989Z,5.82
2022-08-16T06:50:54.381Z,6.78
2022-08-16T06:55:58.635Z,7.18
2022-08-16T07:01:04.682Z,6.15
2022-08-16T07:06:11.498Z,7.10
2022-08-16T07:11:14.416Z,7.00
2022-08-16T07:16:17.275Z,6.05
2022-08-16T07:21:22.501Z,6.90
2022-08-16T07:26:25.862Z,5.85
2022-08-16T07:36:41.219Z,5.88
2022-08-16T07:41:46.826Z,6.18
2022-08-16T07:46:55.590Z,5.00
2022-08-16T07:51:57.828Z,4.97
2022-08-16T07:56:59.159Z,5.70
2022-08-16T08:02:00.701Z,4.75
2022-08-16T08:07:02.359Z,4.97
2022-08-16T08:12:10.263Z,3.70
2022-08-16T08:17:43.183Z,4.47
2022-08-16T08:22:47.022Z,3.95
2022-08-16T08:27:50.629Z,4.63
2022-08-16T08:33:00.924Z,3.72
2022-08-16T08:38:03.428Z,4.22
2022-08-16T08:43:18.325Z,3.03
2022-08-16T08:48:35.140Z,3.80
2022-08-16T08:53:38.284Z,3.63
2022-08-16T08:58:40.380Z,3.33
2022-08-16T09:03:56.622Z,3.40
2022-08-16T09:08:59.814Z,3.00
2022-08-16T09:14:01.275Z,3.35
2022-08-16T09:19:02.694Z,2.80
2022-08-16T09:24:09.816Z,3.45
2022-08-16T09:29:15.049Z,3.72
2022-08-16T09:34:19.443Z,3.03
2022-08-16T09:39:21.601Z,3.45
2022-08-16T09:45:12.351Z,2.83
2022-08-16T09:49:50.953Z,3.13
2022-08-16T09:54:54.056Z,2.95
2022-08-16T09:59:56.278Z,2.70
2022-08-16T10:04:58.793Z,3.17
2022-08-16T10:10:00.234Z,3.17
2022-08-16T10:15:02.106Z,3.10
2022-08-16T10:20:04.245Z,3.17
2022-08-16T10:25:07.506Z,3.22
2022-08-16T10:30:25.858Z,2.63
2022-08-16T10:35:32.590Z,2.58
2022-08-16T10:40:34.370Z,2.50
2022-08-16T10:45:36.905Z,2.20
2022-08-16T10:50:39.142Z,2.78
2022-08-16T10:55:44.217Z,1.90
2022-08-16T11:00:47.212Z,2.33
2022-08-16T11:06:06.115Z,2.00
2022-08-16T11:11:12.893Z,2.03
2022-08-16T11:17:02.209Z,2.22
2022-08-16T11:27:23.527Z,2.08
2022-08-16T11:32:31.539Z,1.80
2022-08-16T11:38:05.874Z,1.70
2022-08-16T11:42:58.390Z,1.30
2022-08-16T11:48:00.317Z,1.30
2022-08-16T11:53:03.785Z,1.40
2022-08-16T11:58:08.429Z,1.50
2022-08-16T12:03:13.773Z,1.55
2022-08-16T12:08:16.211Z,1.50
2022-08-16T12:13:19.724Z,1.90
2022-08-16T12:18:23.615Z,2.08
2022-08-16T12:23:25.012Z,1.25
2022-08-16T12:28:36.783Z,1.60
2022-08-16T12:33:48.261Z,1.33
2022-08-16T12:38:55.477Z,1.40
2022-08-16T12:44:01.337Z,1.77
2022-08-16T12:49:05.631Z,1.70
2022-08-16T12:54:09.568Z,1.30
2022-08-16T12:59:13.925Z,1.77
2022-08-16T13:04:24.893Z,1.55
2022-08-16T13:09:28.873Z,1.60
2022-08-16T13:14:37.998Z,1.30
2022-08-16T13:20:05.997Z,1.40
2022-08-16T13:25:01.556Z,1.60
2022-08-16T13:30:11.344Z,1.15
2022-08-16T13:35:26.542Z,1.50
2022-08-16T13:40:35.854Z,1.13
2022-08-16T13:45:37.309Z,1.40
2022-08-16T13:50:51.342Z,1.23
2022-08-16T13:55:57.845Z,1.30
2022-08-16T14:01:01.813Z,1.30
2022-08-16T14:06:03.453Z,0.95
2022-08-16T14:11:05.542Z,1.20
2022-08-16T14:16:23.610Z,1.00
2022-08-16T14:21:25.700Z,1.02
2022-08-16T14:26:27.062Z,1.23
2022-08-16T14:31:30.940Z,1.10
2022-08-16T14:36:33.427Z,1.60
2022-08-16T14:41:34.757Z,1.20
2022-08-16T14:46:39.099Z,1.20
2022-08-16T14:51:40.568Z,1.67
2022-08-16T14:56:46.661Z,1.10
2022-08-16T15:01:59.359Z,1.73
2022-08-16T15:07:01.432Z,1.00
2022-08-16T15:12:08.247Z,1.27
2022-08-16T15:17:37.001Z,1.00
2022-08-16T15:22:50.945Z,1.42
2022-08-16T15:27:55.045Z,1.42
2022-08-16T15:33:06.933Z,1.40
2022-08-16T15:38:09.809Z,0.90
2022-08-16T15:43:39.334Z,0.98
2022-08-16T15:48:41.629Z,0.90
2022-08-16T15:53:44.537Z,1.37
2022-08-16T15:58:57.393Z,0.85
2022-08-16T16:03:59.762Z,1.27
2022-08-16T16:09:01.349Z,1.35
2022-08-16T16:14:03.045Z,1.20
2022-08-16T16:19:08.777Z,0.90
2022-08-16T16:24:21.544Z,1.23
2022-08-16T16:29:25.182Z,1.35
2022-08-16T16:34:32.369Z,1.20
2022-08-16T16:39:37.039Z,1.00
2022-08-16T16:44:38.508Z,1.05
2022-08-16T16:49:53.119Z,1.23
2022-08-16T16:54:56.224Z,1.17
2022-08-16T16:59:57.680Z,1.52
2022-08-16T17:05:00.007Z,1.30
2022-08-16T17:10:03.507Z,1.10
2022-08-16T17:15:07.323Z,1.20
2022-08-16T17:20:12.807Z,0.90
2022-08-16T17:25:14.586Z,1.20
2022-08-16T17:30:29.349Z,1.25
2022-08-16T17:35:55.684Z,1.10
2022-08-16T17:40:59.337Z,7.72
2022-08-16T17:46:01.584Z,2.17
2022-08-16T17:51:05.346Z,1.83
2022-08-16T17:56:06.968Z,1.00
2022-08-16T18:01:08.431Z,1.23
2022-08-16T18:06:12.531Z,1.80
2022-08-16T18:11:17.987Z,1.30
2022-08-16T18:16:19.708Z,1.38
2022-08-16T18:21:40.661Z,1.53
2022-08-16T18:26:41.992Z,2.45
2022-08-16T18:31:43.766Z,2.00
2022-08-16T18:36:45.148Z,2.40
2022-08-16T18:41:47.773Z,1.92
2022-08-16T18:46:50.720Z,2.20
2022-08-16T18:51:57.051Z,2.67
2022-08-16T18:56:58.595Z,2.80
2022-08-16T19:02:05.110Z,3.17
2022-08-16T19:07:07.106Z,3.42
2022-08-16T19:12:08.706Z,3.30
2022-08-16T19:17:11.245Z,3.45
2022-08-16T19:27:14.343Z,3.13
2022-08-16T19:32:21.160Z,3.55
2022-08-16T19:37:23.627Z,3.65
2022-08-16T19:42:27.989Z,4.05
2022-08-16T19:47:29.612Z,3.67
2022-08-16T19:52:31.934Z,3.88
2022-08-16T19:57:34.423Z,4.00
2022-08-16T20:02:43.752Z,4.65
2022-08-16T20:07:54.392Z,4.28
2022-08-16T20:13:02.538Z,4.05
2022-08-16T20:18:04.521Z,3.70
2022-08-16T20:23:25.753Z,4.00
2022-08-16T20:28:51.713Z,3.90
2022-08-16T20:33:49.242Z,3.20
2022-08-16T20:38:51.708Z,3.20
2022-08-16T20:43:55.157Z,3.72
2022-08-16T20:48:58.837Z,4.15
2022-08-16T20:54:00.307Z,3.53
2022-08-16T20:59:01.650Z,4.40
2022-08-16T21:04:03.102Z,4.68
2022-08-16T21:09:04.966Z,4.10
2022-08-16T21:14:10.704Z,1.92
2022-08-16T21:19:12.542Z,3.38
2022-08-16T21:24:14.120Z,2.90
2022-08-16T21:29:15.607Z,3.30
2022-08-16T21:34:21.347Z,4.65
2022-08-16T21:39:25.639Z,3.90
2022-08-16T21:44:34.373Z,3.50
2022-08-16T21:49:40.504Z,3.60
2022-08-16T21:55:05.641Z,3.78
2022-08-16T22:00:29.091Z,3.00
2022-08-16T22:05:38.199Z,3.67
2022-08-16T22:11:07.034Z,3.53
2022-08-16T22:16:09.882Z,3.70
2022-08-16T22:21:11.249Z,3.72
2022-08-16T22:26:18.203Z,3.42
2022-08-16T22:31:31.058Z,3.05
2022-08-16T22:36:36.626Z,3.40
2022-08-16T22:41:44.284Z,3.28
2022-08-16T22:46:49.084Z,2.90
2022-08-16T22:51:50.485Z,3.10
2022-08-16T22:56:58.678Z,2.50
2022-08-16T23:02:02.592Z,4.07
2022-08-16T23:07:08.969Z,3.70
2022-08-16T23:12:11.423Z,3.33
2022-08-16T23:17:12.746Z,3.47
2022-08-16T23:22:16.535Z,2.95
2022-08-16T23:27:18.938Z,2.88
2022-08-16T23:32:20.285Z,3.00
2022-08-16T23:37:21.774Z,3.28
2022-08-16T23:42:52.993Z,2.97
2022-08-16T23:47:44.781Z,3.17
2022-08-16T23:53:07.038Z,2.47
2022-08-16T23:58:09.791Z,2.90
